Portada
METAR-TAF:

METAR-TAF

Aeropuertos :

Cairo Regional Airport

Cairo, Illinois, Estados Unidos

latitud: 37-03-52N, longitud: 089-13-10W, altitud: 98 m

Observación

El informe se hizo hace 32 minutos, a las 11:55 UTC
Viento 4 kt del este-sureste
Temperatura 21°C
Humedad 83%
Presión 1015 hPa
Visibilidad: 16.1 km
Cielo despejado

METAR: KCIR 251155Z AUTO 11004KT 10SM CLR 21/18 A2997 RMK AO2 T02140183 10214 20190

Hora: 07:27 (12:27 UTC)


TAF: falta

Observaciones y pronósticos meteorológicos de más de 4000 aeropuertos (mensajes METAR y TAF).

Los puntos amarillos y rojos representan las estaciones disponibles.

Ponga el ratón en el punto deseado para ver el nombre de la estación.

Haga clic para ver las observaciones y los pronósticos meteorológicos.

Para cambiar el mapa : haga clic en los botones verdes con una cruz de color negro para hacer un zoom, en el botón verde con un guión para alejar o en las flechas verdes para mapas adyacentes.


METAR-TAF: